createdAt,value
2023-02-06T00:03:47.654Z,78.54
2023-02-06T00:08:50.601Z,78.89
2023-02-06T00:13:53.563Z,78.31
2023-02-06T00:18:59.549Z,79.30
2023-02-06T00:24:03.381Z,79.04
2023-02-06T00:29:06.353Z,78.71
2023-02-06T00:34:10.635Z,80.21
2023-02-06T00:39:15.801Z,80.03
2023-02-06T00:44:18.762Z,78.86
2023-02-06T00:49:23.268Z,78.73
2023-02-06T00:54:27.067Z,79.57
2023-02-06T00:59:29.970Z,79.25
2023-02-06T01:04:35.554Z,79.00
2023-02-06T01:09:38.601Z,79.10
2023-02-06T01:14:41.609Z,79.41
2023-02-06T01:19:48.918Z,79.23
2023-02-06T01:24:51.948Z,80.08
2023-02-06T01:29:55.040Z,79.90
2023-02-06T01:34:59.317Z,79.14
2023-02-06T01:40:02.238Z,79.28
2023-02-06T01:45:39.016Z,79.25
2023-02-06T01:50:47.494Z,79.90
2023-02-06T01:55:53.720Z,80.08
2023-02-06T02:00:58.637Z,80.34
2023-02-06T02:06:08.686Z,81.31
2023-02-06T02:11:16.171Z,81.53
2023-02-06T02:16:24.309Z,81.96
2023-02-06T02:21:53.584Z,80.69
2023-02-06T02:27:32.227Z,80.86
2023-02-06T02:32:52.656Z,80.20
2023-02-06T02:38:05.074Z,79.88
2023-02-06T02:43:17.543Z,81.09
2023-02-06T02:48:25.430Z,80.82
2023-02-06T02:53:29.922Z,81.29
2023-02-06T02:58:36.575Z,81.72
2023-02-06T03:03:44.651Z,82.85
2023-02-06T03:08:57.827Z,82.22
2023-02-06T03:14:07.392Z,82.66
2023-02-06T03:19:15.286Z,82.44
2023-02-06T03:24:23.666Z,83.24
2023-02-06T03:29:29.222Z,82.76
2023-02-06T03:34:39.005Z,84.23
2023-02-06T03:39:43.575Z,84.88
2023-02-06T03:44:50.634Z,84.30
2023-02-06T03:49:56.269Z,84.04
2023-02-06T03:55:05.022Z,83.84
2023-02-06T04:00:09.041Z,85.43
2023-02-06T04:05:19.383Z,85.83
2023-02-06T04:10:26.113Z,86.32
2023-02-06T04:15:29.382Z,87.48
2023-02-06T04:20:32.836Z,88.06
2023-02-06T04:25:37.424Z,88.76
2023-02-06T04:30:40.899Z,88.44
2023-02-06T04:35:43.933Z,87.78
2023-02-06T04:40:48.217Z,87.83
2023-02-06T04:45:51.194Z,88.78
2023-02-06T04:50:54.173Z,89.50
2023-02-06T04:56:04.361Z,89.14
2023-02-06T05:01:08.087Z,89.79
2023-02-06T05:06:11.030Z,89.27
2023-02-06T05:11:15.332Z,88.46
2023-02-06T05:16:18.896Z,88.43
2023-02-06T05:21:22.034Z,87.97
2023-02-06T05:26:26.248Z,88.16
2023-02-06T05:31:29.281Z,88.20
2023-02-06T05:36:32.246Z,86.81
2023-02-06T05:41:36.581Z,86.64
2023-02-06T05:46:39.568Z,86.53
2023-02-06T05:51:42.645Z,85.82
2023-02-06T05:56:46.911Z,85.26
2023-02-06T06:01:49.850Z,86.34
2023-02-06T06:06:52.916Z,85.96
2023-02-06T06:11:57.234Z,85.83
2023-02-06T06:17:00.259Z,85.82
2023-02-06T06:22:03.255Z,85.35
2023-02-06T06:27:10.577Z,85.52
2023-02-06T06:32:13.459Z,86.10
2023-02-06T06:37:16.348Z,86.36
2023-02-06T06:42:20.670Z,85.89
2023-02-06T06:47:23.537Z,86.36
2023-02-06T06:52:26.440Z,89.60
2023-02-06T06:57:33.179Z,87.57
2023-02-06T07:02:36.123Z,86.57
2023-02-06T07:07:40.163Z,86.13
2023-02-06T07:12:44.576Z,85.51
2023-02-06T07:17:47.591Z,85.57
2023-02-06T07:22:50.525Z,84.98
2023-02-06T07:27:54.775Z,85.53
2023-02-06T07:32:57.686Z,85.35
2023-02-06T07:38:00.586Z,85.22
2023-02-06T07:43:07.393Z,84.89
2023-02-06T07:48:11.970Z,85.03
2023-02-06T07:53:14.877Z,85.32
2023-02-06T07:58:19.161Z,86.29
2023-02-06T08:03:22.170Z,86.36
2023-02-06T08:08:25.061Z,86.56
2023-02-06T08:13:29.326Z,87.18
2023-02-06T08:18:32.287Z,87.31
2023-02-06T08:23:35.426Z,86.91
2023-02-06T08:28:42.141Z,87.07
2023-02-06T08:33:45.781Z,88.10
2023-02-06T08:38:48.794Z,87.78
2023-02-06T08:43:55.368Z,88.22
2023-02-06T08:48:59.039Z,88.11
2023-02-06T08:54:04.326Z,88.29
2023-02-06T08:59:10.726Z,87.98
2023-02-06T09:04:14.968Z,87.93
2023-02-06T09:09:18.011Z,87.96
2023-02-06T09:14:22.317Z,88.30
2023-02-06T09:19:25.629Z,88.06
2023-02-06T09:24:30.204Z,88.44
2023-02-06T09:29:34.705Z,87.98
2023-02-06T09:34:37.746Z,88.01
2023-02-06T09:39:40.609Z,88.78
2023-02-06T09:44:49.259Z,89.65
2023-02-06T09:49:55.191Z,90.17
2023-02-06T09:55:04.151Z,89.02
2023-02-06T10:00:15.749Z,89.00
2023-02-06T10:05:26.296Z,88.99
2023-02-06T10:10:37.850Z,88.11
2023-02-06T10:15:47.084Z,87.99
2023-02-06T10:20:54.645Z,87.99
2023-02-06T10:26:06.097Z,87.27
2023-02-06T10:31:22.509Z,87.25
2023-02-06T10:36:46.218Z,88.89
2023-02-06T10:41:57.913Z,91.64
2023-02-06T10:47:02.509Z,90.23
2023-02-06T10:52:26.685Z,87.34
2023-02-06T10:57:31.053Z,86.94
2023-02-06T11:02:44.006Z,87.42
2023-02-06T11:07:49.814Z,89.26
2023-02-06T11:13:03.960Z,89.82
2023-02-06T11:18:14.856Z,86.96
2023-02-06T11:23:20.084Z,86.39
2023-02-06T11:28:24.850Z,86.24
2023-02-06T11:33:37.940Z,84.90
2023-02-06T11:38:55.445Z,82.46
2023-02-06T11:44:02.690Z,83.60
2023-02-06T11:49:23.475Z,82.41
2023-02-06T11:54:28.996Z,82.30
2023-02-06T11:59:34.954Z,83.93
2023-02-06T12:04:41.827Z,82.47
2023-02-06T12:09:44.819Z,80.14
2023-02-06T12:14:50.454Z,80.12
2023-02-06T12:20:02.501Z,79.54
2023-02-06T12:25:06.017Z,78.52
2023-02-06T12:30:27.869Z,78.99
2023-02-06T12:35:37.675Z,79.38
2023-02-06T12:40:49.443Z,78.77
2023-02-06T12:46:00.743Z,76.55
2023-02-06T12:51:14.844Z,74.41
2023-02-06T12:56:26.261Z,75.14
2023-02-06T13:01:48.911Z,75.41
2023-02-06T13:06:55.930Z,75.76
2023-02-06T13:12:09.516Z,77.42
2023-02-06T13:17:19.053Z,76.96
2023-02-06T13:22:35.332Z,75.84
2023-02-06T13:27:40.256Z,75.04
2023-02-06T13:32:46.334Z,75.43
2023-02-06T13:38:10.538Z,73.95
2023-02-06T13:43:19.685Z,73.93
2023-02-06T13:48:52.938Z,72.22
2023-02-06T13:54:20.722Z,72.52
2023-02-06T13:59:29.224Z,73.39
2023-02-06T14:04:33.392Z,73.56
2023-02-06T14:10:13.276Z,75.00
2023-02-06T14:15:26.595Z,73.40
2023-02-06T14:20:39.169Z,72.33
2023-02-06T14:25:57.121Z,73.53
2023-02-06T14:31:12.583Z,74.01
2023-02-06T14:36:35.350Z,73.20
2023-02-06T14:41:40.431Z,72.14
2023-02-06T14:46:43.413Z,69.02
2023-02-06T14:51:51.620Z,69.75
2023-02-06T14:56:59.362Z,69.15
2023-02-06T15:02:14.907Z,71.33
2023-02-06T15:07:24.715Z,69.47
2023-02-06T15:12:32.159Z,70.72
2023-02-06T15:17:35.136Z,72.98
2023-02-06T15:22:38.126Z,73.10
2023-02-06T15:27:42.540Z,74.03
2023-02-06T15:32:49.483Z,74.97
2023-02-06T15:37:53.886Z,76.35
2023-02-06T15:42:58.655Z,76.46
2023-02-06T15:48:10.006Z,76.29
2023-02-06T15:53:20.669Z,75.82
2023-02-06T15:58:26.170Z,75.54
2023-02-06T16:03:31.419Z,76.04
2023-02-06T16:08:38.145Z,76.63
2023-02-06T16:13:46.581Z,77.53
2023-02-06T16:18:52.267Z,78.42
2023-02-06T16:24:08.046Z,79.42
2023-02-06T16:29:25.634Z,78.63
2023-02-06T16:34:40.940Z,79.79
2023-02-06T16:39:44.819Z,80.08
2023-02-06T16:44:51.324Z,80.84
2023-02-06T16:49:54.207Z,81.64
2023-02-06T16:54:58.949Z,80.76
2023-02-06T17:00:05.127Z,81.22
2023-02-06T17:05:08.680Z,81.53
2023-02-06T17:10:14.748Z,81.43
2023-02-06T17:15:20.314Z,81.44
2023-02-06T17:20:30.169Z,80.83
2023-02-06T17:25:33.496Z,81.84
2023-02-06T17:30:38.634Z,81.70
2023-02-06T17:35:41.751Z,81.53
2023-02-06T17:40:44.854Z,81.91
2023-02-06T17:45:49.251Z,81.59
2023-02-06T17:50:52.156Z,80.93
2023-02-06T17:55:55.096Z,80.92
2023-02-06T18:00:59.429Z,80.39
2023-02-06T18:06:03.349Z,80.85
2023-02-06T18:11:11.515Z,81.41
2023-02-06T18:16:17.400Z,81.58
2023-02-06T18:21:21.910Z,81.31
2023-02-06T18:26:25.259Z,80.74
2023-02-06T18:31:33.178Z,81.69
2023-02-06T18:36:38.026Z,81.30
2023-02-06T18:41:58.629Z,81.54
2023-02-06T18:47:02.931Z,80.68
2023-02-06T18:52:07.033Z,81.70
2023-02-06T18:57:09.981Z,81.58
2023-02-06T19:02:14.383Z,81.93
2023-02-06T19:07:17.359Z,81.10
2023-02-06T19:12:20.295Z,81.30
2023-02-06T19:17:25.903Z,82.07
2023-02-06T19:22:28.851Z,81.73
2023-02-06T19:27:32.127Z,81.72
2023-02-06T19:32:36.551Z,80.77
2023-02-06T19:37:40.149Z,82.04
2023-02-06T19:42:43.127Z,82.26
2023-02-06T19:47:47.401Z,81.78
2023-02-06T19:52:50.476Z,84.01
2023-02-06T19:57:53.347Z,82.37
2023-02-06T20:02:57.576Z,81.38
2023-02-06T20:08:00.869Z,81.31
2023-02-06T20:13:03.811Z,81.21
2023-02-06T20:18:08.131Z,81.42
2023-02-06T20:23:11.064Z,81.59
2023-02-06T20:28:14.203Z,80.87
2023-02-06T20:33:18.481Z,80.58
2023-02-06T20:38:21.430Z,80.59
2023-02-06T20:43:24.341Z,82.63
2023-02-06T20:48:28.637Z,82.83
2023-02-06T20:53:31.919Z,81.98
2023-02-06T20:58:34.867Z,80.42
2023-02-06T21:03:39.702Z,81.00
2023-02-06T21:08:43.359Z,80.66
2023-02-06T21:13:46.272Z,80.18
2023-02-06T21:18:50.582Z,80.19
2023-02-06T21:23:55.760Z,80.03
2023-02-06T21:29:00.230Z,81.69
2023-02-06T21:34:08.268Z,81.34
2023-02-06T21:39:15.434Z,80.72
2023-02-06T21:44:18.680Z,79.90
2023-02-06T21:49:23.593Z,80.03
2023-02-06T21:54:26.847Z,79.59
2023-02-06T21:59:32.680Z,80.05
2023-02-06T22:04:36.982Z,80.30
2023-02-06T22:09:40.163Z,80.54
2023-02-06T22:14:43.073Z,79.42
2023-02-06T22:19:48.784Z,79.32
2023-02-06T22:24:51.732Z,79.35
2023-02-06T22:29:54.839Z,79.88
2023-02-06T22:35:01.273Z,80.36
2023-02-06T22:40:04.376Z,80.24
2023-02-06T22:45:08.486Z,79.66
2023-02-06T22:50:12.741Z,80.85
2023-02-06T22:55:15.766Z,79.71
2023-02-06T23:00:18.633Z,79.86
2023-02-06T23:05:22.893Z,80.27
2023-02-06T23:10:25.785Z,79.13
2023-02-06T23:15:28.652Z,79.94
2023-02-06T23:20:32.859Z,79.01
2023-02-06T23:25:36.220Z,78.65
2023-02-06T23:30:39.481Z,79.65
2023-02-06T23:35:44.635Z,79.51
2023-02-06T23:40:48.719Z,80.78
2023-02-06T23:45:51.652Z,79.36
2023-02-06T23:50:55.932Z,79.14
2023-02-06T23:55:59.089Z,79.44
